createdAt,value
2018-10-12T00:00:26.041Z,9.00
2018-10-12T00:02:53.478Z,9.00
2018-10-12T00:05:20.925Z,9.00
2018-10-12T00:07:48.358Z,8.90
2018-10-12T00:10:15.821Z,8.90
2018-10-12T00:12:43.194Z,9.00
2018-10-12T00:15:10.614Z,9.10
2018-10-12T00:17:38.070Z,9.20
2018-10-12T00:20:06.151Z,9.20
2018-10-12T00:22:33.589Z,9.10
2018-10-12T00:25:00.944Z,9.10
2018-10-12T00:27:28.333Z,9.00
2018-10-12T00:29:55.776Z,9.00
2018-10-12T00:32:23.229Z,8.90
2018-10-12T00:34:50.641Z,9.00
2018-10-12T00:37:18.076Z,9.00
2018-10-12T00:39:45.550Z,9.00
2018-10-12T00:42:12.925Z,9.10
2018-10-12T00:44:40.325Z,9.00
2018-10-12T00:47:07.745Z,8.90
2018-10-12T00:49:35.193Z,8.90
2018-10-12T00:52:02.668Z,8.90
2018-10-12T00:54:30.067Z,8.80
2018-10-12T00:56:57.474Z,8.70
2018-10-12T00:59:24.968Z,8.60
2018-10-12T01:01:52.369Z,8.50
2018-10-12T01:04:19.843Z,8.40
2018-10-12T01:06:47.428Z,8.20
2018-10-12T01:09:14.749Z,8.10
2018-10-12T01:11:42.182Z,8.00
2018-10-12T01:14:09.593Z,7.90
2018-10-12T01:16:37.027Z,7.70
2018-10-12T01:19:04.453Z,7.70
2018-10-12T01:21:31.880Z,7.60
2018-10-12T01:23:59.388Z,7.50
2018-10-12T01:26:26.824Z,7.50
2018-10-12T01:28:55.607Z,7.50
2018-10-12T01:31:23.622Z,7.30
2018-10-12T01:33:51.130Z,7.10
2018-10-12T01:36:18.617Z,7.20
2018-10-12T01:38:46.016Z,7.10
2018-10-12T01:41:13.666Z,7.10
2018-10-12T01:43:41.133Z,7.10
2018-10-12T01:46:08.569Z,7.10
2018-10-12T01:48:36.027Z,7.00
2018-10-12T01:51:03.541Z,6.90
2018-10-12T01:53:30.977Z,6.90
2018-10-12T01:56:00.821Z,6.90
2018-10-12T01:58:28.657Z,6.90
2018-10-12T02:00:56.222Z,6.80
2018-10-12T02:03:23.628Z,6.60
2018-10-12T02:05:51.046Z,6.50
2018-10-12T02:08:18.521Z,6.50
2018-10-12T02:10:45.926Z,6.60
2018-10-12T02:13:13.313Z,6.60
2018-10-12T02:15:40.743Z,6.60
2018-10-12T02:18:08.181Z,6.60
2018-10-12T02:20:35.562Z,6.60
2018-10-12T02:23:03.046Z,6.70
2018-10-12T02:25:30.430Z,6.70
2018-10-12T02:27:57.850Z,6.80
2018-10-12T02:30:25.272Z,6.80
2018-10-12T02:32:52.676Z,6.80
2018-10-12T02:35:20.261Z,6.70
2018-10-12T02:37:47.666Z,6.70
2018-10-12T02:40:15.065Z,6.70
2018-10-12T02:42:42.490Z,6.70
2018-10-12T02:45:09.921Z,6.70
2018-10-12T02:47:37.292Z,6.70
2018-10-12T02:50:05.901Z,6.60
2018-10-12T02:52:33.314Z,6.50
2018-10-12T02:55:00.733Z,6.60
2018-10-12T02:57:28.137Z,6.60
2018-10-12T02:59:55.585Z,6.50
2018-10-12T03:02:23.021Z,6.40
2018-10-12T03:04:50.521Z,6.40
2018-10-12T03:07:17.967Z,6.40
2018-10-12T03:09:45.341Z,6.30
2018-10-12T03:12:12.774Z,6.30
2018-10-12T03:14:40.214Z,6.20
2018-10-12T03:17:07.632Z,6.20
2018-10-12T03:19:35.075Z,6.20
2018-10-12T03:22:02.578Z,6.10
2018-10-12T03:24:29.956Z,6.20
2018-10-12T03:26:57.387Z,6.20
2018-10-12T03:29:24.849Z,6.20
2018-10-12T03:31:52.298Z,6.20
2018-10-12T03:34:19.774Z,6.20
2018-10-12T03:36:47.250Z,6.10
2018-10-12T03:39:14.754Z,6.10
2018-10-12T03:41:42.210Z,6.20
2018-10-12T03:44:09.777Z,6.20
2018-10-12T03:46:37.253Z,6.30
2018-10-12T03:49:04.800Z,6.30
2018-10-12T03:51:32.425Z,6.30
2018-10-12T03:53:59.960Z,6.40
2018-10-12T03:56:27.333Z,6.40
2018-10-12T03:58:54.766Z,6.30
2018-10-12T04:01:22.167Z,6.30
2018-10-12T04:03:49.536Z,6.40
2018-10-12T04:06:17.095Z,6.30
2018-10-12T04:08:44.583Z,6.30
2018-10-12T04:11:11.995Z,6.30
2018-10-12T04:13:39.507Z,6.30
2018-10-12T04:16:07.020Z,6.40
2018-10-12T04:18:34.556Z,6.50
2018-10-12T04:21:02.058Z,6.50
2018-10-12T04:23:29.531Z,6.40
2018-10-12T04:25:57.033Z,6.30
2018-10-12T04:28:24.577Z,6.30
2018-10-12T04:30:52.002Z,6.20
2018-10-12T04:33:19.480Z,5.80
2018-10-12T04:35:47.054Z,5.80
2018-10-12T04:38:14.546Z,6.00
2018-10-12T04:41:15.141Z,6.10
2018-10-12T04:43:43.365Z,6.00
2018-10-12T04:46:13.321Z,6.00
2018-10-12T04:48:41.677Z,5.90
2018-10-12T04:51:12.425Z,6.00
2018-10-12T04:53:39.976Z,5.90
2018-10-12T04:56:10.132Z,6.00
2018-10-12T04:58:38.298Z,6.00
2018-10-12T05:01:05.898Z,6.00
2018-10-12T05:03:33.345Z,5.70
2018-10-12T05:06:01.015Z,5.60
2018-10-12T05:08:28.554Z,5.60
2018-10-12T05:10:56.014Z,5.60
2018-10-12T05:13:23.618Z,5.60
2018-10-12T05:15:51.129Z,5.50
2018-10-12T05:18:18.591Z,5.60
2018-10-12T05:20:46.130Z,5.60
2018-10-12T05:23:13.651Z,5.50
2018-10-12T05:25:41.490Z,5.30
2018-10-12T05:28:09.046Z,5.20
2018-10-12T05:30:36.632Z,5.10
2018-10-12T05:33:04.213Z,5.00
2018-10-12T05:35:31.707Z,5.00
2018-10-12T05:37:59.302Z,5.10
2018-10-12T05:40:26.864Z,5.30
2018-10-12T05:42:54.419Z,5.30
2018-10-12T05:45:22.573Z,5.20
2018-10-12T05:47:50.171Z,5.20
2018-10-12T05:50:17.794Z,5.30
2018-10-12T05:52:45.360Z,5.50
2018-10-12T05:55:13.523Z,5.50
2018-10-12T05:57:42.353Z,5.40
2018-10-12T06:00:10.624Z,5.40
2018-10-12T06:02:38.315Z,5.40
2018-10-12T06:05:06.057Z,5.40
2018-10-12T06:07:34.253Z,5.30
2018-10-12T06:10:01.872Z,5.30
2018-10-12T06:12:29.287Z,5.40
2018-10-12T06:14:56.838Z,5.50
2018-10-12T06:17:24.466Z,5.60
2018-10-12T06:19:52.105Z,5.80
2018-10-12T06:22:19.575Z,6.00
2018-10-12T06:24:47.123Z,6.20
2018-10-12T06:27:14.721Z,6.40
2018-10-12T06:29:42.298Z,6.50
2018-10-12T06:32:09.887Z,6.70
2018-10-12T06:34:37.452Z,6.70
2018-10-12T06:37:05.042Z,6.90
2018-10-12T06:39:32.752Z,6.90
2018-10-12T06:42:00.298Z,7.10
2018-10-12T06:44:28.020Z,7.20
2018-10-12T06:46:55.750Z,7.20
2018-10-12T06:49:23.316Z,7.50
2018-10-12T06:51:50.897Z,7.70
2018-10-12T06:54:18.484Z,8.10
2018-10-12T06:56:46.837Z,8.40
2018-10-12T06:59:14.632Z,8.60
2018-10-12T07:01:42.470Z,8.80
2018-10-12T07:04:10.146Z,8.90
2018-10-12T07:06:37.982Z,9.00
2018-10-12T07:09:08.274Z,9.00
2018-10-12T07:11:35.825Z,9.20
2018-10-12T07:14:03.518Z,9.30
2018-10-12T07:16:31.109Z,9.40
2018-10-12T07:18:58.709Z,9.50
2018-10-12T07:21:26.293Z,9.60
2018-10-12T07:23:54.112Z,9.70
2018-10-12T07:26:21.653Z,9.80
2018-10-12T07:28:49.532Z,9.90
2018-10-12T07:31:17.162Z,10.10
2018-10-12T07:33:44.837Z,10.10
2018-10-12T07:36:13.043Z,10.20
2018-10-12T07:38:40.614Z,10.30
2018-10-12T07:41:08.765Z,10.40
2018-10-12T07:43:36.429Z,10.50
2018-10-12T07:46:04.012Z,10.60
2018-10-12T07:48:31.607Z,10.70
2018-10-12T07:50:59.200Z,10.80
2018-10-12T07:53:26.880Z,11.00
2018-10-12T07:55:54.539Z,11.10
2018-10-12T07:58:22.208Z,11.20
2018-10-12T08:00:49.889Z,11.30
2018-10-12T08:03:17.340Z,11.40
2018-10-12T08:05:44.941Z,11.50
2018-10-12T08:08:12.492Z,11.60
2018-10-12T08:10:40.217Z,11.80
2018-10-12T08:13:07.878Z,11.90
2018-10-12T08:15:35.601Z,12.00
2018-10-12T08:18:03.237Z,12.10
2018-10-12T08:20:31.031Z,12.30
2018-10-12T08:22:59.097Z,12.40
2018-10-12T08:25:26.654Z,12.50
2018-10-12T08:27:54.321Z,12.70
2018-10-12T08:30:21.821Z,12.70
2018-10-12T08:32:49.549Z,12.80
2018-10-12T08:35:17.361Z,12.90
2018-10-12T08:37:44.981Z,13.00
2018-10-12T08:40:12.700Z,13.10
2018-10-12T08:42:40.292Z,13.10
2018-10-12T08:45:07.919Z,13.30
2018-10-12T08:47:35.630Z,13.50
2018-10-12T08:50:03.245Z,13.70
2018-10-12T08:52:30.909Z,13.80
2018-10-12T08:54:58.513Z,13.90
2018-10-12T08:57:26.101Z,14.00
2018-10-12T08:59:53.818Z,14.10
2018-10-12T09:02:21.284Z,14.20
2018-10-12T09:04:48.898Z,14.20
2018-10-12T09:07:16.902Z,14.30
2018-10-12T09:09:44.434Z,14.40
2018-10-12T09:12:11.986Z,14.60
2018-10-12T09:17:10.557Z,14.70
2018-10-12T09:19:38.224Z,14.90
2018-10-12T09:22:05.923Z,15.00
2018-10-12T09:24:33.629Z,15.10
2018-10-12T09:27:01.238Z,15.20
2018-10-12T09:29:28.875Z,15.20
2018-10-12T09:31:56.448Z,15.30
2018-10-12T09:34:23.920Z,15.30
2018-10-12T09:36:51.672Z,15.40
2018-10-12T09:39:19.289Z,15.50
2018-10-12T09:41:47.013Z,15.50
2018-10-12T09:44:14.531Z,15.60
2018-10-12T09:46:42.172Z,15.70
2018-10-12T09:49:09.902Z,15.80
2018-10-12T09:51:37.598Z,15.90
2018-10-12T09:54:05.288Z,16.00
2018-10-12T09:56:32.893Z,16.10
2018-10-12T09:59:00.523Z,16.20
2018-10-12T10:01:33.718Z,16.20
2018-10-12T10:04:07.081Z,16.30
2018-10-12T10:06:34.603Z,16.30
2018-10-12T10:09:03.195Z,16.40
2018-10-12T10:11:31.072Z,16.50
2018-10-12T10:13:58.801Z,16.60
2018-10-12T10:16:27.370Z,16.70
2018-10-12T10:18:55.014Z,16.70
2018-10-12T10:21:22.620Z,16.80
2018-10-12T10:23:50.251Z,16.90
2018-10-12T10:26:18.446Z,16.90
2018-10-12T10:28:46.015Z,17.00
2018-10-12T10:31:13.641Z,17.00
2018-10-12T10:33:41.307Z,17.10
2018-10-12T10:36:08.866Z,17.10
2018-10-12T10:38:36.850Z,17.20
2018-10-12T10:41:04.373Z,17.20
2018-10-12T10:43:31.916Z,17.30
2018-10-12T10:45:59.568Z,17.40
2018-10-12T10:48:27.244Z,17.50
2018-10-12T10:50:54.998Z,17.50
2018-10-12T10:53:23.013Z,17.60
2018-10-12T10:55:50.719Z,17.70
2018-10-12T10:58:18.233Z,17.80
2018-10-12T11:00:45.965Z,17.80
2018-10-12T11:03:13.508Z,17.90
2018-10-12T11:05:41.369Z,17.90
2018-10-12T11:08:08.957Z,18.00
2018-10-12T11:10:37.645Z,18.10
2018-10-12T11:13:05.738Z,18.20
2018-10-12T11:15:33.267Z,18.20
2018-10-12T11:18:00.846Z,18.20
2018-10-12T11:20:28.381Z,18.20
2018-10-12T11:22:56.138Z,18.30
2018-10-12T11:25:23.784Z,18.40
2018-10-12T11:27:51.381Z,18.40
2018-10-12T11:30:19.575Z,18.40
2018-10-12T11:32:47.186Z,18.50
2018-10-12T11:35:14.801Z,18.50
2018-10-12T11:37:42.326Z,18.50
2018-10-12T11:40:09.848Z,18.60
2018-10-12T11:42:48.838Z,18.60
2018-10-12T11:45:16.403Z,18.60
2018-10-12T11:47:44.016Z,18.50
2018-10-12T11:50:12.057Z,18.60
2018-10-12T11:52:40.340Z,18.60
2018-10-12T11:55:09.581Z,18.50
2018-10-12T11:57:37.716Z,18.60
2018-10-12T12:00:05.961Z,18.50
2018-10-12T12:02:34.556Z,18.60
2018-10-12T12:05:02.185Z,18.60
2018-10-12T12:07:29.806Z,18.50
2018-10-12T12:09:57.468Z,18.50
2018-10-12T12:12:25.045Z,18.50
2018-10-12T12:14:52.653Z,18.60
2018-10-12T12:17:21.026Z,18.50
2018-10-12T12:19:48.896Z,18.40
2018-10-12T12:22:16.520Z,18.50
2018-10-12T12:24:44.319Z,18.50
2018-10-12T12:27:11.971Z,18.60
2018-10-12T12:29:39.551Z,18.50
2018-10-12T12:32:07.211Z,18.50
2018-10-12T12:34:34.776Z,18.60
2018-10-12T12:37:02.301Z,18.60
2018-10-12T12:39:30.405Z,18.50
2018-10-12T12:41:58.056Z,18.50
2018-10-12T12:44:25.634Z,18.50
2018-10-12T12:46:53.266Z,18.40
2018-10-12T12:49:21.024Z,18.30
2018-10-12T12:51:48.345Z,18.30
2018-10-12T12:54:15.858Z,18.40
2018-10-12T12:56:43.545Z,18.40
2018-10-12T12:59:11.690Z,18.40
2018-10-12T13:01:39.235Z,18.30
2018-10-12T13:04:06.844Z,18.30
2018-10-12T13:06:35.048Z,18.40
2018-10-12T13:09:02.865Z,18.30
2018-10-12T13:11:30.335Z,18.30
2018-10-12T13:13:58.591Z,18.30
2018-10-12T13:16:26.169Z,18.10
2018-10-12T13:18:53.790Z,18.20
2018-10-12T13:21:21.276Z,18.10
2018-10-12T13:23:48.935Z,18.10
2018-10-12T13:26:16.645Z,18.10
2018-10-12T13:28:44.057Z,18.20
2018-10-12T13:31:11.873Z,18.20
2018-10-12T13:33:39.475Z,18.20
2018-10-12T13:36:07.846Z,18.10
2018-10-12T13:38:35.460Z,18.00
2018-10-12T13:41:03.165Z,18.00
2018-10-12T13:43:30.757Z,17.90
2018-10-12T13:45:58.277Z,17.90
2018-10-12T13:48:26.048Z,17.70
2018-10-12T13:50:54.450Z,17.60
2018-10-12T13:53:22.030Z,17.60
2018-10-12T13:55:49.544Z,17.60
2018-10-12T13:58:17.122Z,17.50
2018-10-12T14:00:44.804Z,17.50
2018-10-12T14:03:12.281Z,17.50
2018-10-12T14:05:40.277Z,17.50
2018-10-12T14:08:30.575Z,17.60
2018-10-12T14:10:58.330Z,17.60
2018-10-12T14:13:26.087Z,17.40
2018-10-12T14:15:53.775Z,17.40
2018-10-12T14:18:21.355Z,17.40
2018-10-12T14:20:48.775Z,17.40
2018-10-12T14:23:16.382Z,17.40
2018-10-12T14:25:44.104Z,17.30
2018-10-12T14:28:11.745Z,17.20
2018-10-12T14:30:39.307Z,17.20
2018-10-12T14:33:07.111Z,17.10
2018-10-12T14:35:34.742Z,17.10
2018-10-12T14:38:02.360Z,17.10
2018-10-12T14:40:29.887Z,17.00
2018-10-12T14:42:57.553Z,17.10
2018-10-12T14:45:25.255Z,17.00
2018-10-12T14:47:52.893Z,16.90
2018-10-12T14:50:20.397Z,16.80
2018-10-12T14:52:48.054Z,16.80
2018-10-12T14:55:15.649Z,16.70
2018-10-12T14:57:43.177Z,16.70
2018-10-12T15:00:10.802Z,16.60
2018-10-12T15:02:38.286Z,16.50
2018-10-12T15:05:06.756Z,16.40
2018-10-12T15:07:34.277Z,16.30
2018-10-12T15:10:02.284Z,16.30
2018-10-12T15:12:30.008Z,16.30
2018-10-12T15:15:21.139Z,16.20
2018-10-12T15:17:49.899Z,16.10
2018-10-12T15:20:17.579Z,16.10
2018-10-12T15:22:45.243Z,16.00
2018-10-12T15:25:12.882Z,15.90
2018-10-12T15:27:41.073Z,15.90
2018-10-12T15:30:09.135Z,15.80
2018-10-12T15:32:36.616Z,15.80
2018-10-12T15:35:04.437Z,15.70
2018-10-12T15:37:31.950Z,15.50
2018-10-12T15:39:59.937Z,15.40
2018-10-12T15:42:27.393Z,15.20
2018-10-12T15:44:54.866Z,15.10
2018-10-12T15:47:22.979Z,14.90
2018-10-12T15:49:50.681Z,14.80
2018-10-12T15:52:18.254Z,14.70
2018-10-12T15:54:45.878Z,14.50
2018-10-12T15:57:17.757Z,14.30
2018-10-12T15:59:45.649Z,14.20
2018-10-12T16:02:13.595Z,14.20
2018-10-12T16:04:41.177Z,14.20
2018-10-12T16:07:08.755Z,14.10
2018-10-12T16:09:36.373Z,14.10
2018-10-12T16:12:03.946Z,14.00
2018-10-12T16:14:31.640Z,14.00
2018-10-12T16:17:00.269Z,13.90
2018-10-12T16:19:27.976Z,13.90
2018-10-12T16:21:55.681Z,13.80
2018-10-12T16:24:23.237Z,13.70
2018-10-12T16:26:50.698Z,13.50
2018-10-12T16:29:19.594Z,13.50
2018-10-12T16:31:47.074Z,13.50
2018-10-12T16:34:14.670Z,13.40
2018-10-12T16:36:42.180Z,13.40
2018-10-12T16:39:10.315Z,13.30
2018-10-12T16:41:38.596Z,13.20
2018-10-12T16:44:06.123Z,13.20
2018-10-12T16:46:33.677Z,13.00
2018-10-12T16:49:02.153Z,13.00
2018-10-12T16:51:29.639Z,12.80
2018-10-12T16:53:57.115Z,12.70
2018-10-12T16:56:24.634Z,12.60
2018-10-12T16:58:52.120Z,12.50
2018-10-12T17:01:19.557Z,12.40
2018-10-12T17:03:47.012Z,12.30
2018-10-12T17:06:14.493Z,12.20
2018-10-12T17:08:41.954Z,12.10
2018-10-12T17:11:09.353Z,12.10
2018-10-12T17:13:36.865Z,12.00
2018-10-12T17:16:04.401Z,11.90
2018-10-12T17:18:31.922Z,11.70
2018-10-12T17:20:59.329Z,11.60
2018-10-12T17:23:26.756Z,11.50
2018-10-12T17:25:54.210Z,11.40
2018-10-12T17:28:21.766Z,11.30
2018-10-12T17:30:49.298Z,11.30
2018-10-12T17:33:16.781Z,11.20
2018-10-12T17:35:44.269Z,11.00
2018-10-12T17:38:11.719Z,10.80
2018-10-12T17:40:39.162Z,10.60
2018-10-12T17:43:06.791Z,10.50
2018-10-12T17:45:34.133Z,10.40
2018-10-12T17:48:01.592Z,10.20
2018-10-12T17:50:29.117Z,10.20
2018-10-12T17:52:56.572Z,10.10
2018-10-12T17:55:23.981Z,10.10
2018-10-12T17:57:51.481Z,10.10
2018-10-12T18:00:19.062Z,10.10
2018-10-12T18:02:46.424Z,10.10
2018-10-12T18:05:13.905Z,10.00
2018-10-12T18:07:41.468Z,10.00
2018-10-12T18:10:09.612Z,9.90
2018-10-12T18:12:37.022Z,9.90
2018-10-12T18:15:06.266Z,9.80
2018-10-12T18:17:33.648Z,9.80
2018-10-12T18:20:01.097Z,9.80
2018-10-12T18:22:28.645Z,9.80
2018-10-12T18:24:56.058Z,9.70
2018-10-12T18:27:23.490Z,9.70
2018-10-12T18:29:51.027Z,9.60
2018-10-12T18:32:18.582Z,9.60
2018-10-12T18:34:46.137Z,9.60
2018-10-12T18:37:13.649Z,9.60
2018-10-12T18:39:41.137Z,9.50
2018-10-12T18:42:08.674Z,9.50
2018-10-12T18:44:36.213Z,9.40
2018-10-12T18:47:03.773Z,9.40
2018-10-12T18:49:31.293Z,9.30
2018-10-12T18:51:58.829Z,9.30
2018-10-12T18:54:26.339Z,9.30
2018-10-12T18:56:53.772Z,9.30
2018-10-12T18:59:21.239Z,9.30
2018-10-12T19:01:48.704Z,9.30
2018-10-12T19:04:16.218Z,9.20
2018-10-12T19:06:43.687Z,9.00
2018-10-12T19:09:11.189Z,8.90
2018-10-12T19:11:39.573Z,8.90
2018-10-12T19:14:07.001Z,8.90
2018-10-12T19:16:34.497Z,8.90
2018-10-12T19:19:01.989Z,8.80
2018-10-12T19:21:29.702Z,8.80
2018-10-12T19:23:57.202Z,8.80
2018-10-12T19:26:24.677Z,8.70
2018-10-12T19:28:52.179Z,8.60
2018-10-12T19:31:19.653Z,8.60
2018-10-12T19:33:47.147Z,8.60
2018-10-12T19:36:14.625Z,8.60
2018-10-12T19:38:42.161Z,8.60
2018-10-12T19:41:09.663Z,8.50
2018-10-12T19:43:37.148Z,8.50
2018-10-12T19:46:04.644Z,8.50
2018-10-12T19:48:32.162Z,8.40
2018-10-12T19:50:59.640Z,8.40
2018-10-12T19:53:27.336Z,8.30
2018-10-12T19:55:54.876Z,8.30
2018-10-12T19:58:22.540Z,8.20
2018-10-12T20:00:50.029Z,8.20
2018-10-12T20:03:17.569Z,8.20
2018-10-12T20:05:45.014Z,8.20
2018-10-12T20:08:12.478Z,8.20
2018-10-12T20:10:39.941Z,8.20
2018-10-12T20:13:07.435Z,8.20
2018-10-12T20:15:34.936Z,8.20
2018-10-12T20:18:02.429Z,8.20
2018-10-12T20:20:29.905Z,8.20
2018-10-12T20:22:57.354Z,8.20
2018-10-12T20:25:24.839Z,8.20
2018-10-12T20:27:52.535Z,8.20
2018-10-12T20:30:20.076Z,8.20
2018-10-12T20:32:47.488Z,8.20
2018-10-12T20:35:14.992Z,8.20
2018-10-12T20:37:42.478Z,8.20
2018-10-12T20:40:10.041Z,8.10
2018-10-12T20:42:37.547Z,8.10
2018-10-12T20:45:05.037Z,8.10
2018-10-12T20:47:32.553Z,8.10
2018-10-12T20:50:00.046Z,8.20
2018-10-12T20:52:27.514Z,8.20
2018-10-12T20:54:55.052Z,8.20
2018-10-12T20:57:22.570Z,8.20
2018-10-12T20:59:50.029Z,8.20
2018-10-12T21:02:17.554Z,8.10
2018-10-12T21:04:45.043Z,8.10
2018-10-12T21:07:12.516Z,8.00
2018-10-12T21:09:39.958Z,8.00
2018-10-12T21:12:07.408Z,7.90
2018-10-12T21:14:34.858Z,7.90
2018-10-12T21:17:02.406Z,7.90
2018-10-12T21:19:29.962Z,7.80
2018-10-12T21:21:57.420Z,7.70
2018-10-12T21:24:24.875Z,7.60
2018-10-12T21:26:52.335Z,7.50
2018-10-12T21:29:19.827Z,7.50
2018-10-12T21:31:47.241Z,7.50
2018-10-12T21:34:14.750Z,7.40
2018-10-12T21:36:42.314Z,7.30
2018-10-12T21:39:09.781Z,7.30
2018-10-12T21:41:37.290Z,7.30
2018-10-12T21:44:04.669Z,7.30
2018-10-12T21:46:32.116Z,7.20
2018-10-12T21:48:59.514Z,7.30
2018-10-12T21:51:27.028Z,7.20
2018-10-12T21:53:54.441Z,7.10
2018-10-12T21:56:21.829Z,7.10
2018-10-12T21:58:49.445Z,7.00
2018-10-12T22:01:16.831Z,7.00
2018-10-12T22:03:44.213Z,7.00
2018-10-12T22:06:11.625Z,6.90
2018-10-12T22:08:44.569Z,6.90
2018-10-12T22:11:12.049Z,6.90
2018-10-12T22:13:39.496Z,6.80
2018-10-12T22:16:06.936Z,6.80
2018-10-12T22:18:34.356Z,6.80
2018-10-12T22:21:01.769Z,6.80
2018-10-12T22:23:29.200Z,6.70
2018-10-12T22:25:56.663Z,6.60
2018-10-12T22:28:24.039Z,6.60
2018-10-12T22:30:51.433Z,6.50
2018-10-12T22:33:18.842Z,6.60
2018-10-12T22:35:46.296Z,6.50
2018-10-12T22:38:13.758Z,6.40
2018-10-12T22:40:41.210Z,6.40
2018-10-12T22:43:08.636Z,6.30
2018-10-12T22:45:36.057Z,6.30
2018-10-12T22:48:03.531Z,6.20
2018-10-12T22:50:30.917Z,6.20
2018-10-12T22:52:58.352Z,6.20
2018-10-12T22:55:25.787Z,6.20
2018-10-12T22:57:58.985Z,6.10
2018-10-12T23:00:26.505Z,6.10
2018-10-12T23:02:53.906Z,6.10
2018-10-12T23:05:21.347Z,6.10
2018-10-12T23:07:48.741Z,6.10
2018-10-12T23:10:16.152Z,6.10
2018-10-12T23:12:43.746Z,6.00
2018-10-12T23:15:11.094Z,5.90
2018-10-12T23:17:38.484Z,5.90
2018-10-12T23:20:05.997Z,6.00
2018-10-12T23:22:33.418Z,6.00
2018-10-12T23:25:00.821Z,6.00
2018-10-12T23:27:28.276Z,5.90
2018-10-12T23:29:55.674Z,5.80
2018-10-12T23:32:23.052Z,5.70
2018-10-12T23:34:50.452Z,5.70
2018-10-12T23:37:17.862Z,5.70
2018-10-12T23:39:45.298Z,5.60
2018-10-12T23:42:12.749Z,5.60
2018-10-12T23:44:40.141Z,5.60
2018-10-12T23:47:07.621Z,5.50
2018-10-12T23:49:34.992Z,5.50
2018-10-12T23:52:02.397Z,5.50
2018-10-12T23:54:29.813Z,5.40
2018-10-12T23:56:57.249Z,5.50
2018-10-12T23:59:24.625Z,5.50
